sensor_id;sensor_type;location;lat;lon;timestamp;P1;durP1;ratioP1;P2;durP2;ratioP2
61673;SDS011;47573;43.832;5.974;2023-03-01T00:01:54;509.65;;;352.85;;
61673;SDS011;47573;43.832;5.974;2023-03-01T00:08:34;499.23;;;345.40;;
61673;SDS011;47573;43.832;5.974;2023-03-01T00:15:17;504.15;;;342.55;;
61673;SDS011;47573;43.832;5.974;2023-03-01T00:21:57;502.67;;;338.60;;
61673;SDS011;47573;43.832;5.974;2023-03-01T00:28:38;489.85;;;330.05;;
61673;SDS011;47573;43.832;5.974;2023-03-01T00:35:19;483.90;;;323.27;;
61673;SDS011;47573;43.832;5.974;2023-03-01T00:42:00;483.08;;;321.50;;
61673;SDS011;47573;43.832;5.974;2023-03-01T00:48:41;474.75;;;318.20;;
61673;SDS011;47573;43.832;5.974;2023-03-01T00:55:23;469.50;;;315.23;;
61673;SDS011;47573;43.832;5.974;2023-03-01T01:02:04;470.00;;;309.10;;
61673;SDS011;47573;43.832;5.974;2023-03-01T01:08:45;464.03;;;305.33;;
61673;SDS011;47573;43.832;5.974;2023-03-01T01:15:27;461.80;;;301.42;;
61673;SDS011;47573;43.832;5.974;2023-03-01T01:22:07;447.13;;;293.83;;
61673;SDS011;47573;43.832;5.974;2023-03-01T01:28:48;445.48;;;290.95;;
61673;SDS011;47573;43.832;5.974;2023-03-01T01:35:30;435.77;;;282.67;;
61673;SDS011;47573;43.832;5.974;2023-03-01T01:42:12;433.98;;;282.10;;
61673;SDS011;47573;43.832;5.974;2023-03-01T01:48:56;429.90;;;280.30;;
61673;SDS011;47573;43.832;5.974;2023-03-01T01:55:42;431.38;;;275.92;;
61673;SDS011;47573;43.832;5.974;2023-03-01T02:02:25;408.05;;;261.30;;
61673;SDS011;47573;43.832;5.974;2023-03-01T02:09:07;395.17;;;252.68;;
61673;SDS011;47573;43.832;5.974;2023-03-01T02:15:54;389.40;;;246.43;;
61673;SDS011;47573;43.832;5.974;2023-03-01T02:22:35;381.88;;;242.00;;
61673;SDS011;47573;43.832;5.974;2023-03-01T02:29:18;371.02;;;233.95;;
61673;SDS011;47573;43.832;5.974;2023-03-01T02:36:00;373.57;;;232.90;;
61673;SDS011;47573;43.832;5.974;2023-03-01T02:42:43;363.48;;;224.88;;
61673;SDS011;47573;43.832;5.974;2023-03-01T02:49:31;360.83;;;224.65;;
61673;SDS011;47573;43.832;5.974;2023-03-01T02:56:13;354.70;;;222.30;;
61673;SDS011;47573;43.832;5.974;2023-03-01T03:02:55;349.25;;;217.07;;
61673;SDS011;47573;43.832;5.974;2023-03-01T03:09:37;337.05;;;207.35;;
61673;SDS011;47573;43.832;5.974;2023-03-01T03:16:17;344.35;;;210.35;;
61673;SDS011;47573;43.832;5.974;2023-03-01T03:22:58;330.13;;;201.02;;
61673;SDS011;47573;43.832;5.974;2023-03-01T03:29:40;325.40;;;193.60;;
61673;SDS011;47573;43.832;5.974;2023-03-01T03:36:21;318.52;;;193.02;;
61673;SDS011;47573;43.832;5.974;2023-03-01T03:43:03;313.73;;;186.50;;
61673;SDS011;47573;43.832;5.974;2023-03-01T03:49:46;299.48;;;181.63;;
61673;SDS011;47573;43.832;5.974;2023-03-01T03:56:26;300.60;;;176.63;;
61673;SDS011;47573;43.832;5.974;2023-03-01T04:03:07;295.80;;;175.00;;
61673;SDS011;47573;43.832;5.974;2023-03-01T04:09:50;293.58;;;170.43;;
61673;SDS011;47573;43.832;5.974;2023-03-01T04:16:31;289.60;;;165.93;;
61673;SDS011;47573;43.832;5.974;2023-03-01T04:23:12;270.63;;;157.23;;
61673;SDS011;47573;43.832;5.974;2023-03-01T04:29:55;272.67;;;158.35;;
61673;SDS011;47573;43.832;5.974;2023-03-01T04:36:35;266.55;;;152.98;;
61673;SDS011;47573;43.832;5.974;2023-03-01T04:43:15;262.63;;;146.77;;
61673;SDS011;47573;43.832;5.974;2023-03-01T04:49:57;254.47;;;146.03;;
61673;SDS011;47573;43.832;5.974;2023-03-01T04:56:38;248.63;;;143.00;;
61673;SDS011;47573;43.832;5.974;2023-03-01T05:03:18;251.00;;;139.37;;
61673;SDS011;47573;43.832;5.974;2023-03-01T05:10:00;238.70;;;136.13;;
61673;SDS011;47573;43.832;5.974;2023-03-01T05:16:40;239.48;;;134.60;;
61673;SDS011;47573;43.832;5.974;2023-03-01T05:23:21;228.97;;;131.00;;
61673;SDS011;47573;43.832;5.974;2023-03-01T05:30:04;224.60;;;128.10;;
61673;SDS011;47573;43.832;5.974;2023-03-01T05:36:45;219.63;;;124.80;;
61673;SDS011;47573;43.832;5.974;2023-03-01T05:43:26;218.03;;;121.47;;
61673;SDS011;47573;43.832;5.974;2023-03-01T05:50:12;215.90;;;120.43;;
61673;SDS011;47573;43.832;5.974;2023-03-01T05:56:54;208.30;;;116.63;;
61673;SDS011;47573;43.832;5.974;2023-03-01T06:03:34;207.00;;;115.53;;
61673;SDS011;47573;43.832;5.974;2023-03-01T06:10:16;194.37;;;111.27;;
61673;SDS011;47573;43.832;5.974;2023-03-01T06:23:39;192.18;;;106.45;;
61673;SDS011;47573;43.832;5.974;2023-03-01T06:30:21;188.20;;;104.57;;
61673;SDS011;47573;43.832;5.974;2023-03-01T06:37:03;184.10;;;103.93;;
61673;SDS011;47573;43.832;5.974;2023-03-01T06:43:43;182.27;;;100.90;;
61673;SDS011;47573;43.832;5.974;2023-03-01T06:50:25;174.83;;;98.90;;
61673;SDS011;47573;43.832;5.974;2023-03-01T06:57:06;170.95;;;95.88;;
61673;SDS011;47573;43.832;5.974;2023-03-01T07:03:46;162.10;;;90.97;;
61673;SDS011;47573;43.832;5.974;2023-03-01T07:10:28;168.07;;;91.90;;
61673;SDS011;47573;43.832;5.974;2023-03-01T07:17:09;153.65;;;87.90;;
61673;SDS011;47573;43.832;5.974;2023-03-01T07:23:49;198.30;;;103.37;;
61673;SDS011;47573;43.832;5.974;2023-03-01T07:30:31;258.70;;;112.93;;
61673;SDS011;47573;43.832;5.974;2023-03-01T07:37:12;418.92;;;155.93;;
61673;SDS011;47573;43.832;5.974;2023-03-01T07:43:52;421.87;;;174.27;;
61673;SDS011;47573;43.832;5.974;2023-03-01T07:50:34;243.83;;;116.93;;
61673;SDS011;47573;43.832;5.974;2023-03-01T07:57:14;218.32;;;106.55;;
61673;SDS011;47573;43.832;5.974;2023-03-01T08:03:55;222.48;;;109.65;;
61673;SDS011;47573;43.832;5.974;2023-03-01T08:10:38;469.85;;;206.60;;
61673;SDS011;47573;43.832;5.974;2023-03-01T08:17:18;204.65;;;102.95;;
61673;SDS011;47573;43.832;5.974;2023-03-01T08:23:59;165.97;;;91.70;;
61673;SDS011;47573;43.832;5.974;2023-03-01T08:30:40;170.73;;;89.57;;
61673;SDS011;47573;43.832;5.974;2023-03-01T08:37:21;135.13;;;81.63;;
61673;SDS011;47573;43.832;5.974;2023-03-01T08:44:01;140.30;;;81.17;;
61673;SDS011;47573;43.832;5.974;2023-03-01T08:50:43;194.32;;;95.13;;
61673;SDS011;47573;43.832;5.974;2023-03-01T08:57:24;166.98;;;89.13;;
61673;SDS011;47573;43.832;5.974;2023-03-01T09:04:04;128.10;;;77.40;;
61673;SDS011;47573;43.832;5.974;2023-03-01T09:10:46;281.45;;;122.25;;
61673;SDS011;47573;43.832;5.974;2023-03-01T09:17:27;178.45;;;93.55;;
61673;SDS011;47573;43.832;5.974;2023-03-01T09:24:11;124.40;;;76.90;;
61673;SDS011;47573;43.832;5.974;2023-03-01T09:30:57;129.57;;;78.38;;
61673;SDS011;47573;43.832;5.974;2023-03-01T09:37:38;116.35;;;73.28;;
61673;SDS011;47573;43.832;5.974;2023-03-01T09:44:21;131.65;;;80.07;;
61673;SDS011;47573;43.832;5.974;2023-03-01T09:51:12;126.32;;;76.60;;
61673;SDS011;47573;43.832;5.974;2023-03-01T09:57:59;112.47;;;72.72;;
61673;SDS011;47573;43.832;5.974;2023-03-01T10:04:45;104.95;;;68.60;;
61673;SDS011;47573;43.832;5.974;2023-03-01T10:11:30;104.82;;;68.03;;
61673;SDS011;47573;43.832;5.974;2023-03-01T10:18:13;106.75;;;67.20;;
61673;SDS011;47573;43.832;5.974;2023-03-01T10:24:59;106.93;;;68.75;;
61673;SDS011;47573;43.832;5.974;2023-03-01T10:31:44;99.63;;;64.88;;
61673;SDS011;47573;43.832;5.974;2023-03-01T10:38:26;99.13;;;65.65;;
61673;SDS011;47573;43.832;5.974;2023-03-01T10:45:15;122.88;;;71.50;;
61673;SDS011;47573;43.832;5.974;2023-03-01T10:52:16;107.28;;;68.72;;
61673;SDS011;47573;43.832;5.974;2023-03-01T10:59:00;103.40;;;65.70;;
61673;SDS011;47573;43.832;5.974;2023-03-01T11:05:52;106.75;;;66.70;;
61673;SDS011;47573;43.832;5.974;2023-03-01T11:19:26;158.13;;;87.93;;
61673;SDS011;47573;43.832;5.974;2023-03-01T11:26:07;361.80;;;198.07;;
61673;SDS011;47573;43.832;5.974;2023-03-01T11:32:54;431.63;;;236.38;;
61673;SDS011;47573;43.832;5.974;2023-03-01T11:39:42;425.13;;;238.50;;
61673;SDS011;47573;43.832;5.974;2023-03-01T11:46:40;448.40;;;248.48;;
61673;SDS011;47573;43.832;5.974;2023-03-01T11:53:36;447.27;;;253.57;;
61673;SDS011;47573;43.832;5.974;2023-03-01T12:16:44;375.80;;;220.23;;
61673;SDS011;47573;43.832;5.974;2023-03-01T12:31:16;234.48;;;125.40;;
61673;SDS011;47573;43.832;5.974;2023-03-01T12:38:23;254.18;;;135.68;;
61673;SDS011;47573;43.832;5.974;2023-03-01T12:45:18;291.92;;;162.13;;
61673;SDS011;47573;43.832;5.974;2023-03-01T12:52:13;293.75;;;165.35;;
61673;SDS011;47573;43.832;5.974;2023-03-01T12:59:03;296.45;;;161.70;;
61673;SDS011;47573;43.832;5.974;2023-03-01T13:05:57;289.17;;;158.10;;
61673;SDS011;47573;43.832;5.974;2023-03-01T13:12:52;282.58;;;158.38;;
61673;SDS011;47573;43.832;5.974;2023-03-01T13:19:41;276.33;;;155.43;;
61673;SDS011;47573;43.832;5.974;2023-03-01T13:26:41;281.50;;;156.60;;
61673;SDS011;47573;43.832;5.974;2023-03-01T13:34:01;268.75;;;150.25;;
61673;SDS011;47573;43.832;5.974;2023-03-01T13:40:57;265.63;;;148.65;;
61673;SDS011;47573;43.832;5.974;2023-03-01T13:47:40;259.70;;;144.00;;
61673;SDS011;47573;43.832;5.974;2023-03-01T13:54:24;255.90;;;143.35;;
61673;SDS011;47573;43.832;5.974;2023-03-01T14:01:18;243.65;;;138.77;;
61673;SDS011;47573;43.832;5.974;2023-03-01T14:08:03;249.38;;;141.75;;
61673;SDS011;47573;43.832;5.974;2023-03-01T14:14:45;243.67;;;136.50;;
61673;SDS011;47573;43.832;5.974;2023-03-01T14:21:32;242.90;;;136.20;;
61673;SDS011;47573;43.832;5.974;2023-03-01T14:28:15;241.15;;;134.48;;
61673;SDS011;47573;43.832;5.974;2023-03-01T14:34:58;331.52;;;172.35;;
61673;SDS011;47573;43.832;5.974;2023-03-01T14:41:40;380.50;;;195.75;;
61673;SDS011;47573;43.832;5.974;2023-03-01T14:48:21;371.73;;;192.57;;
61673;SDS011;47573;43.832;5.974;2023-03-01T14:55:04;370.00;;;187.47;;
61673;SDS011;47573;43.832;5.974;2023-03-01T15:01:47;352.25;;;183.70;;
61673;SDS011;47573;43.832;5.974;2023-03-01T15:08:30;333.88;;;176.50;;
61673;SDS011;47573;43.832;5.974;2023-03-01T15:22:16;331.00;;;168.73;;
61673;SDS011;47573;43.832;5.974;2023-03-01T15:28:58;329.27;;;169.27;;
61673;SDS011;47573;43.832;5.974;2023-03-01T15:35:40;369.92;;;198.52;;
61673;SDS011;47573;43.832;5.974;2023-03-01T15:42:36;373.67;;;203.77;;
61673;SDS011;47573;43.832;5.974;2023-03-01T15:49:24;379.02;;;211.45;;
61673;SDS011;47573;43.832;5.974;2023-03-01T15:56:12;369.38;;;208.70;;
61673;SDS011;47573;43.832;5.974;2023-03-01T16:02:53;415.77;;;225.40;;
61673;SDS011;47573;43.832;5.974;2023-03-01T16:09:35;410.63;;;234.03;;
61673;SDS011;47573;43.832;5.974;2023-03-01T16:16:15;401.23;;;231.38;;
61673;SDS011;47573;43.832;5.974;2023-03-01T16:22:57;390.85;;;229.02;;
61673;SDS011;47573;43.832;5.974;2023-03-01T16:29:40;425.17;;;243.82;;
61673;SDS011;47573;43.832;5.974;2023-03-01T16:36:21;373.92;;;220.48;;
61673;SDS011;47573;43.832;5.974;2023-03-01T16:43:02;407.35;;;236.80;;
61673;SDS011;47573;43.832;5.974;2023-03-01T16:49:44;361.83;;;212.02;;
61673;SDS011;47573;43.832;5.974;2023-03-01T16:56:24;334.33;;;195.82;;
61673;SDS011;47573;43.832;5.974;2023-03-01T17:03:05;315.20;;;187.60;;
61673;SDS011;47573;43.832;5.974;2023-03-01T17:09:47;334.83;;;198.23;;
61673;SDS011;47573;43.832;5.974;2023-03-01T17:16:28;343.83;;;209.90;;
61673;SDS011;47573;43.832;5.974;2023-03-01T17:23:09;309.13;;;185.38;;
61673;SDS011;47573;43.832;5.974;2023-03-01T17:29:51;351.77;;;211.90;;
61673;SDS011;47573;43.832;5.974;2023-03-01T17:36:31;365.42;;;221.07;;
61673;SDS011;47573;43.832;5.974;2023-03-01T17:43:12;386.37;;;244.90;;
61673;SDS011;47573;43.832;5.974;2023-03-01T17:49:55;396.20;;;251.20;;
61673;SDS011;47573;43.832;5.974;2023-03-01T17:56:35;452.42;;;300.30;;
61673;SDS011;47573;43.832;5.974;2023-03-01T18:03:16;426.97;;;283.30;;
61673;SDS011;47573;43.832;5.974;2023-03-01T18:09:58;434.23;;;284.20;;
61673;SDS011;47573;43.832;5.974;2023-03-01T18:16:38;470.65;;;306.00;;
61673;SDS011;47573;43.832;5.974;2023-03-01T18:23:19;474.60;;;314.80;;
61673;SDS011;47573;43.832;5.974;2023-03-01T18:30:01;492.30;;;336.73;;
61673;SDS011;47573;43.832;5.974;2023-03-01T18:36:41;521.50;;;362.58;;
61673;SDS011;47573;43.832;5.974;2023-03-01T18:43:22;549.07;;;391.33;;
61673;SDS011;47573;43.832;5.974;2023-03-01T18:50:05;563.28;;;406.23;;
61673;SDS011;47573;43.832;5.974;2023-03-01T18:56:46;549.47;;;400.80;;
61673;SDS011;47573;43.832;5.974;2023-03-01T19:03:26;547.90;;;395.50;;
61673;SDS011;47573;43.832;5.974;2023-03-01T19:10:09;535.90;;;381.07;;
61673;SDS011;47573;43.832;5.974;2023-03-01T19:16:50;554.92;;;394.02;;
61673;SDS011;47573;43.832;5.974;2023-03-01T19:23:31;561.13;;;409.38;;
61673;SDS011;47573;43.832;5.974;2023-03-01T19:30:14;569.95;;;411.42;;
61673;SDS011;47573;43.832;5.974;2023-03-01T19:36:54;566.70;;;412.97;;
61673;SDS011;47573;43.832;5.974;2023-03-01T19:43:35;559.40;;;407.33;;
61673;SDS011;47573;43.832;5.974;2023-03-01T19:50:17;551.85;;;400.73;;
61673;SDS011;47573;43.832;5.974;2023-03-01T19:56:57;556.53;;;400.77;;
61673;SDS011;47573;43.832;5.974;2023-03-01T20:03:38;568.30;;;414.17;;
61673;SDS011;47573;43.832;5.974;2023-03-01T20:10:20;564.10;;;410.63;;
61673;SDS011;47573;43.832;5.974;2023-03-01T20:17:00;563.10;;;413.27;;
61673;SDS011;47573;43.832;5.974;2023-03-01T20:23:41;573.57;;;421.40;;
61673;SDS011;47573;43.832;5.974;2023-03-01T20:30:23;578.83;;;424.27;;
61673;SDS011;47573;43.832;5.974;2023-03-01T20:37:03;583.22;;;428.88;;
61673;SDS011;47573;43.832;5.974;2023-03-01T20:43:44;582.07;;;429.67;;
61673;SDS011;47573;43.832;5.974;2023-03-01T20:50:26;571.03;;;411.63;;
61673;SDS011;47573;43.832;5.974;2023-03-01T20:57:06;564.75;;;410.90;;
61673;SDS011;47573;43.832;5.974;2023-03-01T21:03:47;620.37;;;438.60;;
61673;SDS011;47573;43.832;5.974;2023-03-01T21:10:29;590.13;;;438.67;;
61673;SDS011;47573;43.832;5.974;2023-03-01T21:17:12;603.88;;;449.02;;
61673;SDS011;47573;43.832;5.974;2023-03-01T21:23:54;617.30;;;466.07;;
61673;SDS011;47573;43.832;5.974;2023-03-01T21:30:36;622.13;;;474.83;;
61673;SDS011;47573;43.832;5.974;2023-03-01T21:37:16;637.30;;;479.50;;
61673;SDS011;47573;43.832;5.974;2023-03-01T21:43:58;643.03;;;480.17;;
61673;SDS011;47573;43.832;5.974;2023-03-01T21:50:41;611.70;;;463.00;;
61673;SDS011;47573;43.832;5.974;2023-03-01T21:57:22;596.60;;;447.38;;
61673;SDS011;47573;43.832;5.974;2023-03-01T22:04:02;584.00;;;433.10;;
61673;SDS011;47573;43.832;5.974;2023-03-01T22:10:44;585.88;;;435.10;;
61673;SDS011;47573;43.832;5.974;2023-03-01T22:17:25;606.80;;;457.60;;
61673;SDS011;47573;43.832;5.974;2023-03-01T22:24:06;605.37;;;450.00;;
61673;SDS011;47573;43.832;5.974;2023-03-01T22:30:49;589.88;;;444.10;;
61673;SDS011;47573;43.832;5.974;2023-03-01T22:37:29;587.58;;;435.90;;
61673;SDS011;47573;43.832;5.974;2023-03-01T22:44:10;593.47;;;446.73;;
61673;SDS011;47573;43.832;5.974;2023-03-01T22:50:53;591.28;;;439.17;;
61673;SDS011;47573;43.832;5.974;2023-03-01T22:57:33;588.35;;;434.35;;
61673;SDS011;47573;43.832;5.974;2023-03-01T23:04:14;590.73;;;429.27;;
61673;SDS011;47573;43.832;5.974;2023-03-01T23:10:56;583.97;;;428.30;;
61673;SDS011;47573;43.832;5.974;2023-03-01T23:17:36;577.22;;;421.02;;
61673;SDS011;47573;43.832;5.974;2023-03-01T23:24:17;577.60;;;411.50;;
61673;SDS011;47573;43.832;5.974;2023-03-01T23:31:01;579.75;;;416.42;;
61673;SDS011;47573;43.832;5.974;2023-03-01T23:37:42;571.72;;;405.85;;
61673;SDS011;47573;43.832;5.974;2023-03-01T23:44:23;571.70;;;405.52;;
61673;SDS011;47573;43.832;5.974;2023-03-01T23:51:05;568.43;;;396.80;;
61673;SDS011;47573;43.832;5.974;2023-03-01T23:57:46;558.70;;;390.02;;
